sensor_id;sensor_type;location;lat;lon;timestamp;P1;durP1;ratioP1;P2;durP2;ratioP2
49758;SDS011;35654;46.080;11.118;2022-08-19T00:01:47;21.27;;;8.00;;
49758;SDS011;35654;46.080;11.118;2022-08-19T00:04:17;19.33;;;9.13;;
49758;SDS011;35654;46.080;11.118;2022-08-19T00:06:45;15.45;;;8.50;;
49758;SDS011;35654;46.080;11.118;2022-08-19T00:09:12;18.48;;;8.75;;
49758;SDS011;35654;46.080;11.118;2022-08-19T00:11:40;18.02;;;8.25;;
49758;SDS011;35654;46.080;11.118;2022-08-19T00:16:33;19.60;;;8.77;;
49758;SDS011;35654;46.080;11.118;2022-08-19T00:18:59;15.65;;;8.07;;
49758;SDS011;35654;46.080;11.118;2022-08-19T00:21:25;17.42;;;7.97;;
49758;SDS011;35654;46.080;11.118;2022-08-19T00:23:52;14.98;;;8.45;;
49758;SDS011;35654;46.080;11.118;2022-08-19T00:26:18;15.95;;;7.90;;
49758;SDS011;35654;46.080;11.118;2022-08-19T00:28:43;15.25;;;8.30;;
49758;SDS011;35654;46.080;11.118;2022-08-19T00:31:09;15.50;;;8.00;;
49758;SDS011;35654;46.080;11.118;2022-08-19T00:33:35;27.02;;;7.97;;
49758;SDS011;35654;46.080;11.118;2022-08-19T00:36:02;18.00;;;7.63;;
49758;SDS011;35654;46.080;11.118;2022-08-19T00:38:31;14.85;;;7.82;;
49758;SDS011;35654;46.080;11.118;2022-08-19T00:40:57;16.30;;;7.45;;
49758;SDS011;35654;46.080;11.118;2022-08-19T00:43:24;21.08;;;7.88;;
49758;SDS011;35654;46.080;11.118;2022-08-19T00:45:51;16.95;;;7.63;;
49758;SDS011;35654;46.080;11.118;2022-08-19T00:48:18;17.10;;;8.23;;
49758;SDS011;35654;46.080;11.118;2022-08-19T00:50:44;15.77;;;8.23;;
49758;SDS011;35654;46.080;11.118;2022-08-19T00:53:13;18.25;;;8.10;;
49758;SDS011;35654;46.080;11.118;2022-08-19T00:55:42;14.20;;;7.47;;
49758;SDS011;35654;46.080;11.118;2022-08-19T00:58:12;13.02;;;7.18;;
49758;SDS011;35654;46.080;11.118;2022-08-19T01:00:42;14.35;;;7.70;;
49758;SDS011;35654;46.080;11.118;2022-08-19T01:03:09;15.82;;;7.65;;
49758;SDS011;35654;46.080;11.118;2022-08-19T01:05:37;15.70;;;6.72;;
49758;SDS011;35654;46.080;11.118;2022-08-19T01:08:06;12.52;;;6.72;;
49758;SDS011;35654;46.080;11.118;2022-08-19T01:10:52;12.85;;;6.30;;
49758;SDS011;35654;46.080;11.118;2022-08-19T01:13:21;11.10;;;5.93;;
49758;SDS011;35654;46.080;11.118;2022-08-19T01:15:54;12.00;;;5.50;;
49758;SDS011;35654;46.080;11.118;2022-08-19T01:18:22;11.40;;;5.30;;
49758;SDS011;35654;46.080;11.118;2022-08-19T01:20:50;9.88;;;5.55;;
49758;SDS011;35654;46.080;11.118;2022-08-19T01:23:19;14.45;;;5.80;;
49758;SDS011;35654;46.080;11.118;2022-08-19T01:25:48;12.87;;;6.30;;
49758;SDS011;35654;46.080;11.118;2022-08-19T01:28:20;11.95;;;6.15;;
49758;SDS011;35654;46.080;11.118;2022-08-19T01:30:51;14.10;;;6.85;;
49758;SDS011;35654;46.080;11.118;2022-08-19T01:33:18;11.43;;;5.85;;
49758;SDS011;35654;46.080;11.118;2022-08-19T01:35:44;12.07;;;5.82;;
49758;SDS011;35654;46.080;11.118;2022-08-19T01:40:45;11.52;;;4.97;;
49758;SDS011;35654;46.080;11.118;2022-08-19T01:43:10;9.87;;;5.13;;
49758;SDS011;35654;46.080;11.118;2022-08-19T01:45:36;12.57;;;5.13;;
49758;SDS011;35654;46.080;11.118;2022-08-19T01:48:05;7.53;;;4.53;;
49758;SDS011;35654;46.080;11.118;2022-08-19T01:50:31;8.07;;;4.63;;
49758;SDS011;35654;46.080;11.118;2022-08-19T01:52:58;8.93;;;4.40;;
49758;SDS011;35654;46.080;11.118;2022-08-19T01:55:24;7.55;;;4.35;;
49758;SDS011;35654;46.080;11.118;2022-08-19T01:57:51;7.17;;;4.00;;
49758;SDS011;35654;46.080;11.118;2022-08-19T02:00:22;5.28;;;3.28;;
49758;SDS011;35654;46.080;11.118;2022-08-19T02:02:49;5.43;;;3.20;;
49758;SDS011;35654;46.080;11.118;2022-08-19T02:05:14;7.43;;;3.60;;
49758;SDS011;35654;46.080;11.118;2022-08-19T02:07:41;7.78;;;3.40;;
49758;SDS011;35654;46.080;11.118;2022-08-19T02:10:08;8.83;;;3.73;;
49758;SDS011;35654;46.080;11.118;2022-08-19T02:12:38;6.70;;;3.53;;
49758;SDS011;35654;46.080;11.118;2022-08-19T02:15:04;7.67;;;3.50;;
49758;SDS011;35654;46.080;11.118;2022-08-19T02:17:31;11.35;;;3.75;;
49758;SDS011;35654;46.080;11.118;2022-08-19T02:19:57;8.00;;;3.83;;
49758;SDS011;35654;46.080;11.118;2022-08-19T02:22:23;7.93;;;3.72;;
49758;SDS011;35654;46.080;11.118;2022-08-19T02:24:51;7.93;;;3.63;;
49758;SDS011;35654;46.080;11.118;2022-08-19T02:29:42;8.23;;;3.60;;
49758;SDS011;35654;46.080;11.118;2022-08-19T02:32:08;8.20;;;3.40;;
49758;SDS011;35654;46.080;11.118;2022-08-19T02:34:34;6.40;;;3.67;;
49758;SDS011;35654;46.080;11.118;2022-08-19T02:36:59;7.15;;;3.53;;
49758;SDS011;35654;46.080;11.118;2022-08-19T02:39:25;5.00;;;3.42;;
49758;SDS011;35654;46.080;11.118;2022-08-19T02:41:51;8.07;;;3.60;;
49758;SDS011;35654;46.080;11.118;2022-08-19T02:44:17;4.57;;;3.35;;
49758;SDS011;35654;46.080;11.118;2022-08-19T02:46:44;7.20;;;3.25;;
49758;SDS011;35654;46.080;11.118;2022-08-19T02:49:10;7.10;;;3.63;;
49758;SDS011;35654;46.080;11.118;2022-08-19T02:51:37;7.67;;;3.40;;
49758;SDS011;35654;46.080;11.118;2022-08-19T02:54:06;6.13;;;3.20;;
49758;SDS011;35654;46.080;11.118;2022-08-19T02:56:36;5.40;;;3.28;;
49758;SDS011;35654;46.080;11.118;2022-08-19T02:59:03;6.47;;;2.83;;
49758;SDS011;35654;46.080;11.118;2022-08-19T03:01:33;5.68;;;2.60;;
49758;SDS011;35654;46.080;11.118;2022-08-19T03:04:00;4.32;;;2.95;;
49758;SDS011;35654;46.080;11.118;2022-08-19T03:06:28;6.57;;;2.85;;
49758;SDS011;35654;46.080;11.118;2022-08-19T03:08:55;7.55;;;3.10;;
49758;SDS011;35654;46.080;11.118;2022-08-19T03:11:23;5.72;;;3.50;;
49758;SDS011;35654;46.080;11.118;2022-08-19T03:13:54;5.30;;;3.03;;
49758;SDS011;35654;46.080;11.118;2022-08-19T03:16:21;7.88;;;3.13;;
49758;SDS011;35654;46.080;11.118;2022-08-19T03:18:49;5.32;;;3.08;;
49758;SDS011;35654;46.080;11.118;2022-08-19T03:21:16;5.95;;;3.35;;
49758;SDS011;35654;46.080;11.118;2022-08-19T03:23:46;6.95;;;3.50;;
49758;SDS011;35654;46.080;11.118;2022-08-19T03:26:12;4.82;;;3.38;;
49758;SDS011;35654;46.080;11.118;2022-08-19T03:28:39;5.60;;;3.30;;
49758;SDS011;35654;46.080;11.118;2022-08-19T03:31:06;8.03;;;3.30;;
49758;SDS011;35654;46.080;11.118;2022-08-19T03:33:36;10.25;;;3.08;;
49758;SDS011;35654;46.080;11.118;2022-08-19T03:36:06;8.93;;;3.40;;
49758;SDS011;35654;46.080;11.118;2022-08-19T03:38:36;7.70;;;3.58;;
49758;SDS011;35654;46.080;11.118;2022-08-19T03:41:05;6.15;;;3.08;;
49758;SDS011;35654;46.080;11.118;2022-08-19T03:43:36;5.38;;;3.33;;
49758;SDS011;35654;46.080;11.118;2022-08-19T03:46:13;6.75;;;3.63;;
49758;SDS011;35654;46.080;11.118;2022-08-19T03:48:41;5.75;;;3.20;;
49758;SDS011;35654;46.080;11.118;2022-08-19T03:51:08;7.97;;;3.30;;
49758;SDS011;35654;46.080;11.118;2022-08-19T03:53:45;6.60;;;3.15;;
49758;SDS011;35654;46.080;11.118;2022-08-19T03:56:11;10.10;;;3.65;;
49758;SDS011;35654;46.080;11.118;2022-08-19T03:58:38;6.57;;;3.53;;
49758;SDS011;35654;46.080;11.118;2022-08-19T04:01:08;6.60;;;3.42;;
49758;SDS011;35654;46.080;11.118;2022-08-19T04:03:38;7.70;;;3.28;;
49758;SDS011;35654;46.080;11.118;2022-08-19T04:08:46;6.28;;;3.20;;
49758;SDS011;35654;46.080;11.118;2022-08-19T04:11:14;5.53;;;3.10;;
49758;SDS011;35654;46.080;11.118;2022-08-19T04:13:41;8.25;;;3.63;;
49758;SDS011;35654;46.080;11.118;2022-08-19T04:16:08;5.85;;;3.22;;
49758;SDS011;35654;46.080;11.118;2022-08-19T04:18:35;11.82;;;3.45;;
49758;SDS011;35654;46.080;11.118;2022-08-19T04:21:02;5.43;;;3.30;;
49758;SDS011;35654;46.080;11.118;2022-08-19T04:23:28;7.05;;;3.75;;
49758;SDS011;35654;46.080;11.118;2022-08-19T04:25:54;13.10;;;3.60;;
49758;SDS011;35654;46.080;11.118;2022-08-19T04:28:20;7.95;;;3.58;;
49758;SDS011;35654;46.080;11.118;2022-08-19T04:30:47;6.72;;;3.28;;
49758;SDS011;35654;46.080;11.118;2022-08-19T04:33:16;7.00;;;3.38;;
49758;SDS011;35654;46.080;11.118;2022-08-19T04:35:46;7.80;;;3.47;;
49758;SDS011;35654;46.080;11.118;2022-08-19T04:38:13;6.15;;;3.13;;
49758;SDS011;35654;46.080;11.118;2022-08-19T04:40:41;9.40;;;3.38;;
49758;SDS011;35654;46.080;11.118;2022-08-19T04:43:26;8.48;;;3.47;;
49758;SDS011;35654;46.080;11.118;2022-08-19T04:45:52;8.17;;;3.07;;
49758;SDS011;35654;46.080;11.118;2022-08-19T04:48:17;7.17;;;3.50;;
49758;SDS011;35654;46.080;11.118;2022-08-19T04:50:50;8.80;;;3.20;;
49758;SDS011;35654;46.080;11.118;2022-08-19T04:53:31;5.47;;;3.17;;
49758;SDS011;35654;46.080;11.118;2022-08-19T04:55:59;5.35;;;3.25;;
49758;SDS011;35654;46.080;11.118;2022-08-19T04:58:28;6.45;;;3.65;;
49758;SDS011;35654;46.080;11.118;2022-08-19T05:00:54;8.07;;;3.30;;
49758;SDS011;35654;46.080;11.118;2022-08-19T05:03:20;6.45;;;3.45;;
49758;SDS011;35654;46.080;11.118;2022-08-19T05:05:46;6.13;;;3.92;;
49758;SDS011;35654;46.080;11.118;2022-08-19T05:08:16;10.25;;;4.25;;
49758;SDS011;35654;46.080;11.118;2022-08-19T05:10:45;7.03;;;3.72;;
49758;SDS011;35654;46.080;11.118;2022-08-19T05:13:15;6.78;;;3.95;;
49758;SDS011;35654;46.080;11.118;2022-08-19T05:15:43;5.80;;;3.85;;
49758;SDS011;35654;46.080;11.118;2022-08-19T05:18:09;10.20;;;3.53;;
49758;SDS011;35654;46.080;11.118;2022-08-19T05:20:53;11.02;;;3.78;;
49758;SDS011;35654;46.080;11.118;2022-08-19T05:23:37;7.32;;;3.67;;
49758;SDS011;35654;46.080;11.118;2022-08-19T05:26:03;10.10;;;3.85;;
49758;SDS011;35654;46.080;11.118;2022-08-19T05:28:29;6.32;;;4.50;;
49758;SDS011;35654;46.080;11.118;2022-08-19T05:30:55;9.95;;;4.05;;
49758;SDS011;35654;46.080;11.118;2022-08-19T05:33:20;5.43;;;3.73;;
49758;SDS011;35654;46.080;11.118;2022-08-19T05:35:46;9.23;;;3.40;;
49758;SDS011;35654;46.080;11.118;2022-08-19T05:38:14;6.43;;;3.40;;
49758;SDS011;35654;46.080;11.118;2022-08-19T05:40:41;6.00;;;3.15;;
49758;SDS011;35654;46.080;11.118;2022-08-19T05:43:11;7.25;;;3.72;;
49758;SDS011;35654;46.080;11.118;2022-08-19T05:45:40;7.10;;;3.40;;
49758;SDS011;35654;46.080;11.118;2022-08-19T05:48:07;10.30;;;3.83;;
49758;SDS011;35654;46.080;11.118;2022-08-19T05:50:36;9.85;;;3.97;;
49758;SDS011;35654;46.080;11.118;2022-08-19T05:55:28;10.10;;;3.45;;
49758;SDS011;35654;46.080;11.118;2022-08-19T05:57:53;4.70;;;3.27;;
49758;SDS011;35654;46.080;11.118;2022-08-19T06:00:18;5.80;;;3.10;;
49758;SDS011;35654;46.080;11.118;2022-08-19T06:02:44;9.70;;;3.50;;
49758;SDS011;35654;46.080;11.118;2022-08-19T06:05:09;6.33;;;3.67;;
49758;SDS011;35654;46.080;11.118;2022-08-19T06:07:36;6.60;;;3.38;;
49758;SDS011;35654;46.080;11.118;2022-08-19T06:10:04;6.90;;;3.83;;
49758;SDS011;35654;46.080;11.118;2022-08-19T06:12:32;6.18;;;3.00;;
49758;SDS011;35654;46.080;11.118;2022-08-19T06:14:59;5.70;;;3.22;;
49758;SDS011;35654;46.080;11.118;2022-08-19T06:17:27;5.75;;;3.10;;
49758;SDS011;35654;46.080;11.118;2022-08-19T06:19:56;7.47;;;3.35;;
49758;SDS011;35654;46.080;11.118;2022-08-19T06:22:21;7.87;;;3.10;;
49758;SDS011;35654;46.080;11.118;2022-08-19T06:24:46;6.43;;;3.00;;
49758;SDS011;35654;46.080;11.118;2022-08-19T06:27:12;5.97;;;3.28;;
49758;SDS011;35654;46.080;11.118;2022-08-19T06:29:38;9.75;;;3.00;;
49758;SDS011;35654;46.080;11.118;2022-08-19T06:32:03;4.70;;;2.80;;
49758;SDS011;35654;46.080;11.118;2022-08-19T06:34:30;5.40;;;2.80;;
49758;SDS011;35654;46.080;11.118;2022-08-19T06:36:59;6.78;;;2.70;;
49758;SDS011;35654;46.080;11.118;2022-08-19T06:39:29;6.97;;;3.10;;
49758;SDS011;35654;46.080;11.118;2022-08-19T06:41:59;10.07;;;2.95;;
49758;SDS011;35654;46.080;11.118;2022-08-19T06:44:26;6.55;;;3.13;;
49758;SDS011;35654;46.080;11.118;2022-08-19T06:46:54;6.70;;;3.10;;
49758;SDS011;35654;46.080;11.118;2022-08-19T06:49:20;13.07;;;3.72;;
49758;SDS011;35654;46.080;11.118;2022-08-19T06:51:47;8.77;;;3.35;;
49758;SDS011;35654;46.080;11.118;2022-08-19T06:54:13;7.72;;;4.20;;
49758;SDS011;35654;46.080;11.118;2022-08-19T06:59:06;5.68;;;3.22;;
49758;SDS011;35654;46.080;11.118;2022-08-19T07:01:34;6.65;;;2.80;;
49758;SDS011;35654;46.080;11.118;2022-08-19T07:04:05;8.02;;;3.28;;
49758;SDS011;35654;46.080;11.118;2022-08-19T07:06:31;7.70;;;2.83;;
49758;SDS011;35654;46.080;11.118;2022-08-19T07:08:57;8.55;;;3.05;;
49758;SDS011;35654;46.080;11.118;2022-08-19T07:11:23;5.60;;;3.10;;
49758;SDS011;35654;46.080;11.118;2022-08-19T07:16:15;4.82;;;2.90;;
49758;SDS011;35654;46.080;11.118;2022-08-19T07:18:42;6.07;;;2.83;;
49758;SDS011;35654;46.080;11.118;2022-08-19T07:21:13;5.50;;;2.60;;
49758;SDS011;35654;46.080;11.118;2022-08-19T07:23:42;7.15;;;2.90;;
49758;SDS011;35654;46.080;11.118;2022-08-19T07:26:12;6.28;;;2.80;;
49758;SDS011;35654;46.080;11.118;2022-08-19T07:28:40;6.30;;;2.75;;
49758;SDS011;35654;46.080;11.118;2022-08-19T07:31:09;8.07;;;2.75;;
49758;SDS011;35654;46.080;11.118;2022-08-19T07:33:37;6.78;;;2.65;;
49758;SDS011;35654;46.080;11.118;2022-08-19T07:36:04;3.17;;;2.53;;
49758;SDS011;35654;46.080;11.118;2022-08-19T07:38:31;6.13;;;2.40;;
49758;SDS011;35654;46.080;11.118;2022-08-19T07:43:22;7.05;;;2.30;;
49758;SDS011;35654;46.080;11.118;2022-08-19T07:45:51;5.75;;;2.50;;
49758;SDS011;35654;46.080;11.118;2022-08-19T07:48:21;4.93;;;2.55;;
49758;SDS011;35654;46.080;11.118;2022-08-19T07:50:53;7.25;;;2.20;;
49758;SDS011;35654;46.080;11.118;2022-08-19T07:53:26;6.55;;;2.38;;
49758;SDS011;35654;46.080;11.118;2022-08-19T07:55:54;7.30;;;2.28;;
49758;SDS011;35654;46.080;11.118;2022-08-19T07:58:20;4.50;;;1.90;;
49758;SDS011;35654;46.080;11.118;2022-08-19T08:00:47;3.80;;;2.10;;
49758;SDS011;35654;46.080;11.118;2022-08-19T08:03:15;6.65;;;2.58;;
49758;SDS011;35654;46.080;11.118;2022-08-19T08:05:42;4.38;;;2.15;;
49758;SDS011;35654;46.080;11.118;2022-08-19T08:08:27;7.30;;;2.15;;
49758;SDS011;35654;46.080;11.118;2022-08-19T08:11:11;3.10;;;2.13;;
49758;SDS011;35654;46.080;11.118;2022-08-19T08:13:37;7.78;;;2.10;;
49758;SDS011;35654;46.080;11.118;2022-08-19T08:16:02;9.27;;;2.55;;
49758;SDS011;35654;46.080;11.118;2022-08-19T08:18:28;6.47;;;2.50;;
49758;SDS011;35654;46.080;11.118;2022-08-19T08:20:57;8.80;;;2.40;;
49758;SDS011;35654;46.080;11.118;2022-08-19T08:23:23;7.10;;;2.75;;
49758;SDS011;35654;46.080;11.118;2022-08-19T08:25:51;2.97;;;2.00;;
49758;SDS011;35654;46.080;11.118;2022-08-19T08:28:17;4.25;;;2.40;;
49758;SDS011;35654;46.080;11.118;2022-08-19T08:30:43;2.78;;;2.10;;
49758;SDS011;35654;46.080;11.118;2022-08-19T08:33:11;9.75;;;2.65;;
49758;SDS011;35654;46.080;11.118;2022-08-19T08:35:36;6.30;;;2.10;;
49758;SDS011;35654;46.080;11.118;2022-08-19T08:38:02;4.53;;;2.10;;
49758;SDS011;35654;46.080;11.118;2022-08-19T08:45:55;5.45;;;2.40;;
49758;SDS011;35654;46.080;11.118;2022-08-19T08:48:30;3.55;;;2.30;;
49758;SDS011;35654;46.080;11.118;2022-08-19T08:51:02;4.38;;;2.38;;
49758;SDS011;35654;46.080;11.118;2022-08-19T08:53:31;4.78;;;2.20;;
49758;SDS011;35654;46.080;11.118;2022-08-19T08:55:59;5.90;;;2.20;;
49758;SDS011;35654;46.080;11.118;2022-08-19T08:58:30;6.15;;;2.55;;
49758;SDS011;35654;46.080;11.118;2022-08-19T09:01:10;4.97;;;2.28;;
49758;SDS011;35654;46.080;11.118;2022-08-19T09:03:37;5.55;;;2.15;;
49758;SDS011;35654;46.080;11.118;2022-08-19T09:06:13;6.88;;;2.55;;
49758;SDS011;35654;46.080;11.118;2022-08-19T09:11:06;4.60;;;1.98;;
49758;SDS011;35654;46.080;11.118;2022-08-19T09:14:10;4.68;;;1.95;;
49758;SDS011;35654;46.080;11.118;2022-08-19T09:16:32;5.30;;;2.10;;
49758;SDS011;35654;46.080;11.118;2022-08-19T09:21:28;4.55;;;2.28;;
49758;SDS011;35654;46.080;11.118;2022-08-19T09:23:54;12.05;;;2.83;;
49758;SDS011;35654;46.080;11.118;2022-08-19T09:26:20;6.07;;;2.10;;
49758;SDS011;35654;46.080;11.118;2022-08-19T09:28:48;5.53;;;2.33;;
49758;SDS011;35654;46.080;11.118;2022-08-19T09:31:16;7.38;;;2.47;;
49758;SDS011;35654;46.080;11.118;2022-08-19T09:33:43;3.30;;;2.08;;
49758;SDS011;35654;46.080;11.118;2022-08-19T09:36:10;7.40;;;2.53;;
49758;SDS011;35654;46.080;11.118;2022-08-19T09:38:38;5.22;;;2.35;;
49758;SDS011;35654;46.080;11.118;2022-08-19T09:41:09;6.47;;;2.40;;
49758;SDS011;35654;46.080;11.118;2022-08-19T09:43:38;5.00;;;2.10;;
49758;SDS011;35654;46.080;11.118;2022-08-19T09:46:05;5.38;;;2.35;;
49758;SDS011;35654;46.080;11.118;2022-08-19T09:48:34;6.40;;;2.65;;
49758;SDS011;35654;46.080;11.118;2022-08-19T09:51:08;4.93;;;2.88;;
49758;SDS011;35654;46.080;11.118;2022-08-19T09:53:35;5.80;;;2.35;;
49758;SDS011;35654;46.080;11.118;2022-08-19T09:56:02;7.32;;;2.42;;
49758;SDS011;35654;46.080;11.118;2022-08-19T09:58:29;4.32;;;1.95;;
49758;SDS011;35654;46.080;11.118;2022-08-19T10:03:21;6.30;;;2.20;;
49758;SDS011;35654;46.080;11.118;2022-08-19T10:05:47;6.15;;;2.47;;
49758;SDS011;35654;46.080;11.118;2022-08-19T10:08:13;15.05;;;2.55;;
49758;SDS011;35654;46.080;11.118;2022-08-19T10:13:04;6.68;;;1.83;;
49758;SDS011;35654;46.080;11.118;2022-08-19T10:15:29;4.28;;;1.95;;
49758;SDS011;35654;46.080;11.118;2022-08-19T10:17:55;4.35;;;1.85;;
49758;SDS011;35654;46.080;11.118;2022-08-19T10:22:47;9.32;;;2.42;;
49758;SDS011;35654;46.080;11.118;2022-08-19T10:27:41;4.45;;;2.30;;
49758;SDS011;35654;46.080;11.118;2022-08-19T10:30:07;4.40;;;2.45;;
49758;SDS011;35654;46.080;11.118;2022-08-19T10:32:34;7.00;;;2.90;;
49758;SDS011;35654;46.080;11.118;2022-08-19T10:34:59;7.80;;;2.30;;
49758;SDS011;35654;46.080;11.118;2022-08-19T10:37:25;3.83;;;2.20;;
49758;SDS011;35654;46.080;11.118;2022-08-19T10:39:50;4.25;;;2.00;;
49758;SDS011;35654;46.080;11.118;2022-08-19T10:42:16;6.75;;;2.30;;
49758;SDS011;35654;46.080;11.118;2022-08-19T10:44:43;4.05;;;2.10;;
49758;SDS011;35654;46.080;11.118;2022-08-19T10:47:10;4.68;;;2.35;;
49758;SDS011;35654;46.080;11.118;2022-08-19T10:49:35;9.18;;;2.80;;
49758;SDS011;35654;46.080;11.118;2022-08-19T10:52:21;4.32;;;2.03;;
49758;SDS011;35654;46.080;11.118;2022-08-19T10:54:59;3.33;;;2.30;;
49758;SDS011;35654;46.080;11.118;2022-08-19T10:57:52;3.28;;;2.30;;
49758;SDS011;35654;46.080;11.118;2022-08-19T11:02:43;4.72;;;2.30;;
49758;SDS011;35654;46.080;11.118;2022-08-19T11:07:38;7.22;;;2.40;;
49758;SDS011;35654;46.080;11.118;2022-08-19T11:10:04;5.32;;;2.15;;
49758;SDS011;35654;46.080;11.118;2022-08-19T11:12:30;24.48;;;3.00;;
49758;SDS011;35654;46.080;11.118;2022-08-19T11:14:57;6.32;;;2.28;;
49758;SDS011;35654;46.080;11.118;2022-08-19T11:17:23;9.35;;;2.72;;
49758;SDS011;35654;46.080;11.118;2022-08-19T11:22:14;29.63;;;3.80;;
49758;SDS011;35654;46.080;11.118;2022-08-19T11:24:40;9.07;;;2.55;;
49758;SDS011;35654;46.080;11.118;2022-08-19T11:29:34;19.33;;;2.92;;
49758;SDS011;35654;46.080;11.118;2022-08-19T11:32:03;5.25;;;2.35;;
49758;SDS011;35654;46.080;11.118;2022-08-19T11:34:31;9.88;;;2.70;;
49758;SDS011;35654;46.080;11.118;2022-08-19T11:36:57;4.18;;;1.83;;
49758;SDS011;35654;46.080;11.118;2022-08-19T11:39:24;4.63;;;2.08;;
49758;SDS011;35654;46.080;11.118;2022-08-19T11:41:51;3.88;;;2.30;;
49758;SDS011;35654;46.080;11.118;2022-08-19T11:44:17;7.13;;;2.55;;
49758;SDS011;35654;46.080;11.118;2022-08-19T11:49:11;6.43;;;2.00;;
49758;SDS011;35654;46.080;11.118;2022-08-19T11:51:46;16.83;;;2.80;;
49758;SDS011;35654;46.080;11.118;2022-08-19T11:54:14;5.47;;;2.35;;
49758;SDS011;35654;46.080;11.118;2022-08-19T11:56:41;4.85;;;2.20;;
49758;SDS011;35654;46.080;11.118;2022-08-19T11:59:07;3.97;;;1.90;;
49758;SDS011;35654;46.080;11.118;2022-08-19T12:01:32;3.92;;;2.17;;
49758;SDS011;35654;46.080;11.118;2022-08-19T12:03:59;10.82;;;2.70;;
49758;SDS011;35654;46.080;11.118;2022-08-19T12:06:26;4.43;;;2.30;;
49758;SDS011;35654;46.080;11.118;2022-08-19T12:08:57;3.88;;;2.17;;
49758;SDS011;35654;46.080;11.118;2022-08-19T12:11:24;4.18;;;1.60;;
49758;SDS011;35654;46.080;11.118;2022-08-19T12:13:51;3.05;;;1.80;;
49758;SDS011;35654;46.080;11.118;2022-08-19T12:16:18;3.63;;;2.08;;
49758;SDS011;35654;46.080;11.118;2022-08-19T12:18:45;5.10;;;2.38;;
49758;SDS011;35654;46.080;11.118;2022-08-19T12:21:12;8.00;;;4.35;;
49758;SDS011;35654;46.080;11.118;2022-08-19T12:23:39;4.75;;;1.90;;
49758;SDS011;35654;46.080;11.118;2022-08-19T12:26:05;5.78;;;2.33;;
49758;SDS011;35654;46.080;11.118;2022-08-19T12:28:31;5.05;;;1.98;;
49758;SDS011;35654;46.080;11.118;2022-08-19T12:30:56;4.28;;;2.20;;
49758;SDS011;35654;46.080;11.118;2022-08-19T12:33:22;3.15;;;2.03;;
49758;SDS011;35654;46.080;11.118;2022-08-19T12:35:50;4.05;;;2.20;;
49758;SDS011;35654;46.080;11.118;2022-08-19T12:38:17;3.17;;;1.60;;
49758;SDS011;35654;46.080;11.118;2022-08-19T12:40:46;4.78;;;1.83;;
49758;SDS011;35654;46.080;11.118;2022-08-19T12:43:12;4.05;;;1.90;;
49758;SDS011;35654;46.080;11.118;2022-08-19T12:45:40;2.80;;;2.03;;
49758;SDS011;35654;46.080;11.118;2022-08-19T12:48:07;5.35;;;2.10;;
49758;SDS011;35654;46.080;11.118;2022-08-19T12:50:32;3.20;;;1.80;;
49758;SDS011;35654;46.080;11.118;2022-08-19T12:52:57;6.43;;;1.80;;
49758;SDS011;35654;46.080;11.118;2022-08-19T12:55:23;2.95;;;1.90;;
49758;SDS011;35654;46.080;11.118;2022-08-19T12:57:49;5.38;;;1.90;;
49758;SDS011;35654;46.080;11.118;2022-08-19T13:00:16;4.53;;;1.88;;
49758;SDS011;35654;46.080;11.118;2022-08-19T13:02:43;6.15;;;2.42;;
49758;SDS011;35654;46.080;11.118;2022-08-19T13:05:11;4.78;;;2.00;;
49758;SDS011;35654;46.080;11.118;2022-08-19T13:07:40;6.88;;;2.00;;
49758;SDS011;35654;46.080;11.118;2022-08-19T13:10:09;6.20;;;2.13;;
49758;SDS011;35654;46.080;11.118;2022-08-19T13:12:36;2.83;;;2.00;;
49758;SDS011;35654;46.080;11.118;2022-08-19T13:15:03;6.07;;;2.13;;
49758;SDS011;35654;46.080;11.118;2022-08-19T13:17:28;5.75;;;2.05;;
49758;SDS011;35654;46.080;11.118;2022-08-19T13:19:54;4.60;;;2.35;;
49758;SDS011;35654;46.080;11.118;2022-08-19T13:22:19;5.95;;;2.20;;
49758;SDS011;35654;46.080;11.118;2022-08-19T13:24:45;4.80;;;2.33;;
49758;SDS011;35654;46.080;11.118;2022-08-19T13:27:10;3.10;;;2.13;;
49758;SDS011;35654;46.080;11.118;2022-08-19T13:29:35;5.90;;;2.10;;
49758;SDS011;35654;46.080;11.118;2022-08-19T13:32:19;4.65;;;1.77;;
49758;SDS011;35654;46.080;11.118;2022-08-19T13:35:03;7.25;;;1.90;;
49758;SDS011;35654;46.080;11.118;2022-08-19T13:37:29;4.43;;;1.75;;
49758;SDS011;35654;46.080;11.118;2022-08-19T13:40:08;5.80;;;1.88;;
49758;SDS011;35654;46.080;11.118;2022-08-19T13:42:47;3.75;;;1.70;;
49758;SDS011;35654;46.080;11.118;2022-08-19T13:45:15;4.35;;;1.58;;
49758;SDS011;35654;46.080;11.118;2022-08-19T13:47:44;3.70;;;1.65;;
49758;SDS011;35654;46.080;11.118;2022-08-19T13:50:12;4.70;;;1.60;;
49758;SDS011;35654;46.080;11.118;2022-08-19T13:52:39;5.75;;;1.55;;
49758;SDS011;35654;46.080;11.118;2022-08-19T13:55:05;5.35;;;1.70;;
49758;SDS011;35654;46.080;11.118;2022-08-19T13:57:32;6.93;;;1.80;;
49758;SDS011;35654;46.080;11.118;2022-08-19T13:59:58;11.38;;;1.75;;
49758;SDS011;35654;46.080;11.118;2022-08-19T14:02:23;3.33;;;1.73;;
49758;SDS011;35654;46.080;11.118;2022-08-19T14:04:49;4.90;;;1.50;;
49758;SDS011;35654;46.080;11.118;2022-08-19T14:07:15;2.97;;;1.50;;
49758;SDS011;35654;46.080;11.118;2022-08-19T14:12:06;3.03;;;1.40;;
49758;SDS011;35654;46.080;11.118;2022-08-19T14:14:35;3.20;;;1.38;;
49758;SDS011;35654;46.080;11.118;2022-08-19T14:17:05;7.90;;;1.83;;
49758;SDS011;35654;46.080;11.118;2022-08-19T14:19:31;4.93;;;1.35;;
49758;SDS011;35654;46.080;11.118;2022-08-19T14:21:57;4.28;;;1.45;;
49758;SDS011;35654;46.080;11.118;2022-08-19T14:24:22;3.22;;;1.30;;
49758;SDS011;35654;46.080;11.118;2022-08-19T14:26:48;6.20;;;1.45;;
49758;SDS011;35654;46.080;11.118;2022-08-19T14:29:13;6.40;;;1.50;;
49758;SDS011;35654;46.080;11.118;2022-08-19T14:31:39;6.50;;;1.40;;
49758;SDS011;35654;46.080;11.118;2022-08-19T14:34:05;4.63;;;1.10;;
49758;SDS011;35654;46.080;11.118;2022-08-19T14:36:31;3.05;;;1.20;;
49758;SDS011;35654;46.080;11.118;2022-08-19T14:38:59;5.10;;;1.10;;
49758;SDS011;35654;46.080;11.118;2022-08-19T14:41:25;4.38;;;1.10;;
49758;SDS011;35654;46.080;11.118;2022-08-19T14:43:53;4.13;;;1.25;;
49758;SDS011;35654;46.080;11.118;2022-08-19T14:46:20;4.28;;;1.25;;
49758;SDS011;35654;46.080;11.118;2022-08-19T14:48:47;4.40;;;1.30;;
49758;SDS011;35654;46.080;11.118;2022-08-19T14:51:13;6.03;;;1.30;;
49758;SDS011;35654;46.080;11.118;2022-08-19T14:53:39;4.93;;;1.42;;
49758;SDS011;35654;46.080;11.118;2022-08-19T14:56:12;6.00;;;1.25;;
49758;SDS011;35654;46.080;11.118;2022-08-19T14:58:39;3.35;;;1.30;;
49758;SDS011;35654;46.080;11.118;2022-08-19T15:01:06;4.68;;;1.05;;
49758;SDS011;35654;46.080;11.118;2022-08-19T15:03:32;5.57;;;1.50;;
49758;SDS011;35654;46.080;11.118;2022-08-19T15:05:59;4.80;;;1.77;;
49758;SDS011;35654;46.080;11.118;2022-08-19T15:08:26;4.55;;;1.20;;
49758;SDS011;35654;46.080;11.118;2022-08-19T15:10:53;4.93;;;1.20;;
49758;SDS011;35654;46.080;11.118;2022-08-19T15:15:44;5.22;;;1.77;;
49758;SDS011;35654;46.080;11.118;2022-08-19T15:18:13;5.85;;;1.40;;
49758;SDS011;35654;46.080;11.118;2022-08-19T15:20:38;2.70;;;1.30;;
49758;SDS011;35654;46.080;11.118;2022-08-19T15:23:04;3.88;;;1.40;;
49758;SDS011;35654;46.080;11.118;2022-08-19T15:25:30;1.92;;;1.10;;
49758;SDS011;35654;46.080;11.118;2022-08-19T15:27:57;5.97;;;1.20;;
49758;SDS011;35654;46.080;11.118;2022-08-19T15:30:23;2.58;;;1.35;;
49758;SDS011;35654;46.080;11.118;2022-08-19T15:32:50;4.40;;;1.20;;
49758;SDS011;35654;46.080;11.118;2022-08-19T15:35:17;5.15;;;1.30;;